Time;durP1;ratioP1;P1;durP2;ratioP2;P2;SDS_P1;SDS_P2;PMS_P1;PMS_P2;Temp;Humidity;BMP_temperature;BMP_pressure;BME280_temperature;BME280_humidity;BME280_pressure;Samples;Min_cycle;Max_cycle;Signal;HPM_P1;HPM_P2
2024/02/03 00:01:47;;;;;;;17.02;10.35;;;;;;;;;;5028646;28;20052;-80
2024/02/03 00:04:13;;;;;;;17.98;10.40;;;;;;;;;;5046730;28;20025;-80
2024/02/03 00:06:38;;;;;;;17.27;10.20;;;;;;;;;;5047370;28;20431;-80
2024/02/03 00:09:07;;;;;;;17.30;10.73;;;;;;;;;;5046871;28;20131;-80
2024/02/03 00:11:33;;;;;;;16.75;10.40;;;;;;;;;;5033946;28;20021;-80
2024/02/03 00:14:00;;;;;;;17.23;10.07;;;;;;;;;;5046149;28;20028;-81
2024/02/03 00:16:26;;;;;;;14.98;10.25;;;;;;;;;;5030712;28;20036;-80
2024/02/03 00:18:52;;;;;;;15.82;9.18;;;;;;;;;;5032703;28;20033;-80
2024/02/03 00:21:17;;;;;;;17.10;10.23;;;;;;;;;;5048499;28;20031;-80
2024/02/03 00:23:44;;;;;;;16.75;9.93;;;;;;;;;;5053039;28;20025;-90
2024/02/03 00:26:10;;;;;;;14.88;10.05;;;;;;;;;;5051237;28;20029;-89
2024/02/03 00:28:35;;;;;;;14.68;9.77;;;;;;;;;;5033527;28;20047;-89
2024/02/03 00:31:01;;;;;;;17.73;9.98;;;;;;;;;;5031148;28;20021;-87
2024/02/03 00:33:26;;;;;;;15.52;9.23;;;;;;;;;;5052179;28;20021;-88
2024/02/03 00:35:52;;;;;;;14.73;9.35;;;;;;;;;;5050361;28;20550;-88
2024/02/03 00:38:17;;;;;;;14.57;8.93;;;;;;;;;;5050177;28;20032;-88
2024/02/03 00:40:43;;;;;;;14.43;9.32;;;;;;;;;;5033795;28;20096;-88
2024/02/03 00:43:08;;;;;;;15.30;9.50;;;;;;;;;;5054794;28;20025;-88
2024/02/03 00:45:35;;;;;;;14.57;9.35;;;;;;;;;;5054212;28;20029;-88
2024/02/03 00:48:00;;;;;;;15.63;8.98;;;;;;;;;;5051781;28;20025;-88
2024/02/03 00:50:26;;;;;;;13.23;8.80;;;;;;;;;;5039891;28;20127;-88
2024/02/03 00:52:51;;;;;;;13.60;8.38;;;;;;;;;;5051824;28;20032;-88
2024/02/03 00:55:17;;;;;;;12.43;8.85;;;;;;;;;;5031543;28;20040;-89
2024/02/03 00:57:42;;;;;;;13.23;8.50;;;;;;;;;;5040700;28;20025;-89
2024/02/03 01:00:09;;;;;;;13.80;8.70;;;;;;;;;;5036396;28;20035;-88
2024/02/03 01:02:35;;;;;;;14.23;8.10;;;;;;;;;;5034433;28;20022;-89
2024/02/03 01:05:01;;;;;;;12.18;7.82;;;;;;;;;;5042863;28;20025;-89
2024/02/03 01:07:27;;;;;;;13.25;8.30;;;;;;;;;;5027488;28;20413;-89
2024/02/03 01:09:53;;;;;;;11.18;7.85;;;;;;;;;;5034107;28;20030;-88
2024/02/03 01:12:18;;;;;;;13.90;8.15;;;;;;;;;;5027934;28;20037;-88
2024/02/03 01:14:44;;;;;;;13.68;7.53;;;;;;;;;;5034224;28;20113;-89
2024/02/03 01:17:10;;;;;;;12.52;7.45;;;;;;;;;;5045985;28;20373;-88
2024/02/03 01:19:35;;;;;;;14.05;8.40;;;;;;;;;;5049552;28;20033;-88
2024/02/03 01:22:01;;;;;;;13.40;7.32;;;;;;;;;;5029885;28;20128;-88
2024/02/03 01:24:27;;;;;;;15.40;7.93;;;;;;;;;;5030732;28;20029;-89
2024/02/03 01:26:52;;;;;;;12.35;7.40;;;;;;;;;;5032093;28;20088;-88
2024/02/03 01:29:18;;;;;;;11.30;7.97;;;;;;;;;;5031825;28;20541;-88
2024/02/03 01:31:43;;;;;;;10.07;6.63;;;;;;;;;;5029782;28;20037;-89
2024/02/03 01:34:08;;;;;;;10.95;7.72;;;;;;;;;;5045624;28;20388;-89
2024/02/03 01:36:35;;;;;;;13.00;7.75;;;;;;;;;;5024410;28;20031;-89
2024/02/03 01:39:00;;;;;;;11.77;7.05;;;;;;;;;;5045296;28;20597;-89
2024/02/03 01:41:27;;;;;;;11.38;7.18;;;;;;;;;;5032487;28;20029;-89
2024/02/03 01:43:52;;;;;;;11.93;7.18;;;;;;;;;;5036327;28;20036;-89
2024/02/03 01:46:18;;;;;;;10.85;6.93;;;;;;;;;;5034005;28;20021;-89
2024/02/03 01:48:45;;;;;;;13.70;7.93;;;;;;;;;;5032226;28;20028;-88
2024/02/03 01:51:11;;;;;;;13.10;6.97;;;;;;;;;;5049913;28;20188;-88
2024/02/03 01:53:37;;;;;;;14.18;7.18;;;;;;;;;;5039177;28;20024;-88
2024/02/03 01:56:03;;;;;;;11.02;6.70;;;;;;;;;;5030301;28;20103;-88
2024/02/03 01:58:29;;;;;;;11.75;7.28;;;;;;;;;;5045829;28;20057;-88
2024/02/03 02:00:56;;;;;;;10.15;6.80;;;;;;;;;;5032924;28;20084;-79
2024/02/03 02:03:22;;;;;;;11.82;7.28;;;;;;;;;;5062852;22;20202;-88
2024/02/03 02:05:48;;;;;;;10.23;6.47;;;;;;;;;;5040037;28;20041;-89
2024/02/03 02:08:13;;;;;;;13.25;7.18;;;;;;;;;;5058389;28;20047;-89
2024/02/03 02:10:39;;;;;;;10.77;6.53;;;;;;;;;;5063136;28;20036;-87
2024/02/03 02:13:04;;;;;;;12.20;7.30;;;;;;;;;;5051212;28;20020;-86
2024/02/03 02:15:30;;;;;;;11.02;6.57;;;;;;;;;;5062269;28;20054;-89
2024/02/03 02:18:00;;;;;;;12.07;7.05;;;;;;;;;;5048863;28;20028;-89
2024/02/03 02:20:26;;;;;;;9.57;6.05;;;;;;;;;;5055240;28;20024;-88
2024/02/03 02:22:52;;;;;;;11.57;6.22;;;;;;;;;;5062785;28;20033;-89
2024/02/03 02:25:18;;;;;;;10.25;6.57;;;;;;;;;;5050543;28;20039;-88
2024/02/03 02:27:43;;;;;;;11.90;7.05;;;;;;;;;;5044012;28;20036;-87
2024/02/03 02:30:10;;;;;;;11.23;6.20;;;;;;;;;;5059111;28;20098;-89
2024/02/03 02:32:36;;;;;;;11.73;5.70;;;;;;;;;;5062051;28;20017;-88
2024/02/03 02:35:01;;;;;;;8.75;6.03;;;;;;;;;;5039749;28;20036;-88
2024/02/03 02:37:27;;;;;;;10.35;6.32;;;;;;;;;;5057573;28;20165;-89
2024/02/03 02:39:53;;;;;;;10.00;5.82;;;;;;;;;;5065024;28;20067;-87
2024/02/03 02:42:18;;;;;;;8.77;5.43;;;;;;;;;;5065424;28;20543;-89
2024/02/03 02:44:44;;;;;;;9.73;5.82;;;;;;;;;;5044843;28;20123;-87
2024/02/03 02:47:09;;;;;;;8.07;5.55;;;;;;;;;;5042983;28;20020;-87
2024/02/03 02:49:35;;;;;;;9.80;5.55;;;;;;;;;;5062100;28;20024;-90
2024/02/03 02:52:00;;;;;;;9.48;5.05;;;;;;;;;;5042700;28;20090;-88
2024/02/03 02:54:26;;;;;;;10.10;5.25;;;;;;;;;;5045546;28;20489;-88
2024/02/03 02:56:51;;;;;;;10.70;5.22;;;;;;;;;;5044995;28;20059;-88
2024/02/03 02:59:17;;;;;;;9.07;5.20;;;;;;;;;;5046551;28;20115;-88
2024/02/03 03:01:49;;;;;;;8.00;5.30;;;;;;;;;;5040476;28;20384;-89
2024/02/03 03:04:14;;;;;;;9.38;5.80;;;;;;;;;;5048146;28;20024;-88
2024/02/03 03:06:40;;;;;;;9.73;5.80;;;;;;;;;;5046797;28;20029;-89
2024/02/03 03:09:06;;;;;;;8.00;5.20;;;;;;;;;;5065289;28;20155;-88
2024/02/03 03:11:31;;;;;;;9.07;4.97;;;;;;;;;;5048992;28;20021;-89
2024/02/03 03:13:58;;;;;;;12.00;6.15;;;;;;;;;;5048491;28;20021;-89
2024/02/03 03:16:24;;;;;;;10.18;5.60;;;;;;;;;;5046103;28;20068;-93
2024/02/03 03:18:52;;;;;;;9.85;5.55;;;;;;;;;;5048917;28;20382;-92
2024/02/03 03:21:17;;;;;;;8.57;5.80;;;;;;;;;;5053684;28;20035;-91
2024/02/03 03:23:43;;;;;;;10.32;5.88;;;;;;;;;;5047324;28;20040;-92
2024/02/03 03:26:08;;;;;;;11.27;5.95;;;;;;;;;;5064073;28;20032;-90
2024/02/03 03:28:34;;;;;;;11.00;6.25;;;;;;;;;;5044900;28;20025;-90
2024/02/03 03:30:59;;;;;;;9.65;6.10;;;;;;;;;;5048115;28;20111;-89
2024/02/03 03:33:25;;;;;;;9.50;5.60;;;;;;;;;;5063876;28;20841;-88
2024/02/03 03:35:50;;;;;;;9.13;5.38;;;;;;;;;;5047585;28;20025;-87
2024/02/03 03:38:16;;;;;;;10.15;5.47;;;;;;;;;;5046166;28;20562;-88
2024/02/03 03:40:41;;;;;;;8.25;5.47;;;;;;;;;;5046126;28;20123;-88
2024/02/03 03:43:07;;;;;;;12.30;5.53;;;;;;;;;;5032695;28;20036;-88
2024/02/03 03:45:34;;;;;;;8.32;4.97;;;;;;;;;;5047504;28;20116;-87
2024/02/03 03:47:59;;;;;;;11.07;5.22;;;;;;;;;;5047608;28;20099;-88
2024/02/03 03:50:25;;;;;;;9.40;5.07;;;;;;;;;;5048306;28;20157;-89
2024/02/03 03:52:50;;;;;;;11.43;5.20;;;;;;;;;;5049475;28;20064;-88
2024/02/03 03:55:16;;;;;;;10.93;5.43;;;;;;;;;;5053550;28;20029;-88
2024/02/03 03:57:42;;;;;;;8.20;5.05;;;;;;;;;;5063511;28;20025;-88
2024/02/03 04:00:12;;;;;;;9.60;4.80;;;;;;;;;;5049617;28;20060;-89
2024/02/03 04:02:46;;;;;;;7.22;4.00;;;;;;;;;;5049765;28;20044;-88
2024/02/03 04:05:14;;;;;;;10.45;5.35;;;;;;;;;;5050311;28;20543;-89
2024/02/03 04:07:40;;;;;;;6.72;4.30;;;;;;;;;;5049200;28;20439;-87
2024/02/03 04:10:06;;;;;;;9.00;4.57;;;;;;;;;;5065809;28;20036;-87
2024/02/03 04:12:31;;;;;;;12.38;4.70;;;;;;;;;;5051063;28;20028;-89
2024/02/03 04:14:58;;;;;;;7.88;4.03;;;;;;;;;;5065225;28;20070;-90
2024/02/03 04:17:24;;;;;;;9.10;4.35;;;;;;;;;;5067242;28;20032;-88
2024/02/03 04:19:49;;;;;;;9.23;4.60;;;;;;;;;;5051635;28;20136;-88
2024/02/03 04:22:16;;;;;;;7.18;4.10;;;;;;;;;;5051402;28;20419;-87
2024/02/03 04:24:41;;;;;;;9.43;4.28;;;;;;;;;;5052513;28;20036;-89
2024/02/03 04:27:07;;;;;;;7.63;4.25;;;;;;;;;;5050173;28;20021;-89
2024/02/03 04:29:32;;;;;;;7.55;4.20;;;;;;;;;;5049997;28;20563;-89
2024/02/03 04:31:57;;;;;;;8.52;3.90;;;;;;;;;;5053258;28;20036;-90
2024/02/03 04:34:23;;;;;;;7.40;3.95;;;;;;;;;;5049210;28;20473;-89
2024/02/03 04:36:49;;;;;;;7.72;4.43;;;;;;;;;;5055459;28;20114;-88
2024/02/03 04:39:14;;;;;;;7.30;4.43;;;;;;;;;;5049458;28;20056;-89
2024/02/03 04:41:40;;;;;;;7.60;4.15;;;;;;;;;;5070685;28;20028;-90
2024/02/03 04:44:06;;;;;;;7.22;4.03;;;;;;;;;;5051033;28;20136;-91
2024/02/03 04:46:32;;;;;;;9.73;4.25;;;;;;;;;;5050928;28;20036;-92
2024/02/03 04:48:58;;;;;;;10.57;4.22;;;;;;;;;;5047552;28;20083;-91
2024/02/03 04:51:23;;;;;;;7.55;4.43;;;;;;;;;;5049861;28;20115;-88
2024/02/03 04:53:49;;;;;;;8.50;4.20;;;;;;;;;;5048910;28;20035;-88
2024/02/03 04:56:14;;;;;;;8.82;4.57;;;;;;;;;;5050332;28;20055;-91
2024/02/03 04:58:40;;;;;;;7.50;3.78;;;;;;;;;;5049410;28;20048;-89
2024/02/03 05:01:05;;;;;;;8.20;4.22;;;;;;;;;;5047814;28;20032;-89
2024/02/03 05:03:35;;;;;;;6.07;4.00;;;;;;;;;;5067582;28;20081;-89
2024/02/03 05:06:05;;;;;;;8.52;3.70;;;;;;;;;;5049292;28;20477;-89
2024/02/03 05:08:31;;;;;;;6.57;3.90;;;;;;;;;;5066854;28;20034;-88
2024/02/03 05:10:58;;;;;;;8.73;4.10;;;;;;;;;;5064220;28;20032;-89
2024/02/03 05:13:23;;;;;;;9.10;4.15;;;;;;;;;;5064851;28;20037;-88
2024/02/03 05:15:48;;;;;;;6.10;3.40;;;;;;;;;;5049063;28;20093;-89
2024/02/03 05:18:14;;;;;;;7.30;3.60;;;;;;;;;;5051490;28;20119;-87
2024/02/03 05:20:39;;;;;;;8.10;3.83;;;;;;;;;;5051904;28;20028;-88
2024/02/03 05:23:05;;;;;;;6.10;3.45;;;;;;;;;;5067910;28;20031;-89
2024/02/03 05:25:30;;;;;;;7.32;3.40;;;;;;;;;;5048098;28;20048;-88
2024/02/03 05:27:56;;;;;;;8.52;3.40;;;;;;;;;;5063340;28;20070;-88
2024/02/03 05:30:21;;;;;;;8.98;3.33;;;;;;;;;;5066812;28;20036;-88
2024/02/03 05:32:47;;;;;;;7.85;3.45;;;;;;;;;;5063247;28;20516;-90
2024/02/03 05:35:12;;;;;;;8.40;3.58;;;;;;;;;;5065491;28;20048;-88
2024/02/03 05:37:37;;;;;;;10.15;3.53;;;;;;;;;;5062001;28;20032;-87
2024/02/03 05:40:03;;;;;;;7.25;3.47;;;;;;;;;;5048939;28;20169;-89
2024/02/03 05:42:30;;;;;;;7.70;3.53;;;;;;;;;;5048907;28;20032;-89
2024/02/03 05:44:57;;;;;;;6.32;3.22;;;;;;;;;;5046261;28;20055;-88
2024/02/03 05:47:22;;;;;;;6.47;3.10;;;;;;;;;;5046908;28;20050;-89
2024/02/03 05:49:48;;;;;;;5.38;2.92;;;;;;;;;;5050589;28;20155;-94
2024/02/03 05:52:13;;;;;;;5.53;2.95;;;;;;;;;;5049253;28;20063;-93
2024/02/03 05:54:38;;;;;;;6.85;2.70;;;;;;;;;;5064800;28;20516;-92
2024/02/03 05:57:04;;;;;;;8.10;3.10;;;;;;;;;;5049073;28;20040;-91
2024/02/03 05:59:30;;;;;;;4.93;2.78;;;;;;;;;;5064107;28;20032;-94
2024/02/03 06:02:01;;;;;;;6.03;2.80;;;;;;;;;;5048454;28;20051;-91
2024/02/03 06:04:29;;;;;;;7.95;2.67;;;;;;;;;;5050433;28;20025;-93
2024/02/03 06:06:55;;;;;;;5.80;2.60;;;;;;;;;;5049877;28;20035;-93
2024/02/03 06:09:22;;;;;;;6.40;2.83;;;;;;;;;;5050984;28;20024;-94
2024/02/03 06:11:48;;;;;;;5.15;2.40;;;;;;;;;;5065643;28;20048;-93
2024/02/03 06:14:13;;;;;;;6.60;2.42;;;;;;;;;;5047374;28;20117;-91
2024/02/03 06:16:39;;;;;;;6.05;2.20;;;;;;;;;;5065444;28;20025;-92
2024/02/03 06:19:04;;;;;;;6.88;2.30;;;;;;;;;;5051968;28;20536;-93
2024/02/03 06:21:30;;;;;;;6.60;2.67;;;;;;;;;;5068980;28;20025;-93
2024/02/03 06:23:56;;;;;;;6.70;2.70;;;;;;;;;;5049836;28;20027;-92
2024/02/03 06:26:22;;;;;;;5.32;2.63;;;;;;;;;;5050072;28;20051;-92
2024/02/03 06:28:47;;;;;;;6.93;2.40;;;;;;;;;;5045900;28;20024;-92
2024/02/03 06:31:12;;;;;;;6.57;2.60;;;;;;;;;;5051765;28;20035;-93
2024/02/03 06:33:38;;;;;;;7.55;3.20;;;;;;;;;;5063174;28;20059;-93
2024/02/03 06:36:04;;;;;;;6.38;2.97;;;;;;;;;;5046058;28;20031;-92
2024/02/03 06:38:29;;;;;;;7.80;2.38;;;;;;;;;;5049556;28;20115;-93
2024/02/03 06:40:56;;;;;;;10.25;3.10;;;;;;;;;;5047776;28;20082;-92
2024/02/03 06:43:22;;;;;;;8.02;2.83;;;;;;;;;;5050302;28;20020;-88
2024/02/03 06:45:47;;;;;;;7.18;2.58;;;;;;;;;;5068500;28;20345;-90
2024/02/03 06:48:12;;;;;;;6.22;2.50;;;;;;;;;;5060834;28;20035;-91
2024/02/03 06:50:38;;;;;;;6.70;3.17;;;;;;;;;;5047590;28;20043;-91
2024/02/03 06:53:05;;;;;;;5.18;2.83;;;;;;;;;;5049342;28;20901;-92
2024/02/03 06:55:30;;;;;;;9.63;3.55;;;;;;;;;;5051796;28;20043;-91
2024/02/03 06:57:57;;;;;;;8.27;3.03;;;;;;;;;;5046304;28;20029;-91
2024/02/03 07:00:23;;;;;;;8.00;3.60;;;;;;;;;;5047888;28;20033;-91
2024/02/03 07:02:51;;;;;;;10.32;3.58;;;;;;;;;;5048191;28;20083;-89
2024/02/03 07:05:17;;;;;;;7.70;3.55;;;;;;;;;;5065634;28;20043;-89
2024/02/03 07:07:42;;;;;;;8.27;3.35;;;;;;;;;;5049105;28;20151;-93
2024/02/03 07:10:08;;;;;;;7.57;3.20;;;;;;;;;;5049319;28;20397;-90
2024/02/03 07:12:33;;;;;;;8.20;3.65;;;;;;;;;;5050990;28;20020;-90
2024/02/03 07:14:59;;;;;;;8.05;4.30;;;;;;;;;;5061229;28;20020;-92
2024/02/03 07:17:24;;;;;;;8.75;4.18;;;;;;;;;;5047696;28;20048;-92
2024/02/03 07:19:50;;;;;;;8.80;3.78;;;;;;;;;;5049272;28;20032;-90
2024/02/03 07:22:16;;;;;;;8.32;3.50;;;;;;;;;;5050875;28;20027;-92
2024/02/03 07:24:44;;;;;;;9.93;4.10;;;;;;;;;;5067007;28;20382;-89
2024/02/03 07:27:10;;;;;;;8.48;4.20;;;;;;;;;;5055735;28;20085;-92
2024/02/03 07:29:35;;;;;;;8.80;3.90;;;;;;;;;;5055094;28;20036;-92
2024/02/03 07:32:02;;;;;;;10.25;4.97;;;;;;;;;;5052475;28;20119;-92
2024/02/03 07:34:29;;;;;;;10.50;4.45;;;;;;;;;;5052004;28;20044;-91
2024/02/03 07:36:54;;;;;;;8.40;4.68;;;;;;;;;;5053264;28;20033;-91
2024/02/03 07:39:20;;;;;;;10.40;4.93;;;;;;;;;;5050188;28;20031;-91
2024/02/03 07:41:47;;;;;;;11.07;4.93;;;;;;;;;;5070646;28;20115;-91
2024/02/03 07:44:12;;;;;;;12.25;4.68;;;;;;;;;;5067617;28;20020;-92
2024/02/03 07:46:38;;;;;;;8.93;4.55;;;;;;;;;;5051552;28;20090;-91
2024/02/03 07:49:07;;;;;;;11.13;5.07;;;;;;;;;;5050788;28;20028;-90
2024/02/03 07:51:33;;;;;;;7.25;4.97;;;;;;;;;;5068761;28;20028;-92
2024/02/03 07:53:58;;;;;;;10.02;4.63;;;;;;;;;;5051616;28;20031;-92
2024/02/03 07:56:24;;;;;;;11.25;4.72;;;;;;;;;;5047436;28;20119;-86
2024/02/03 07:58:51;;;;;;;19.63;6.10;;;;;;;;;;5050333;28;20021;-87
2024/02/03 08:01:20;;;;;;;8.27;4.72;;;;;;;;;;5049576;28;20032;-86
2024/02/03 08:03:50;;;;;;;10.98;4.97;;;;;;;;;;5050231;28;20438;-88
2024/02/03 08:06:16;;;;;;;8.30;4.75;;;;;;;;;;5049728;28;20042;-87
2024/02/03 08:08:44;;;;;;;9.60;4.45;;;;;;;;;;5049505;28;20024;-86
2024/02/03 08:11:09;;;;;;;11.00;4.82;;;;;;;;;;5065552;28;20378;-88
2024/02/03 08:13:42;;;;;;;8.60;4.78;;;;;;;;;;5050471;28;20077;-87
2024/02/03 08:16:08;;;;;;;;;;;;;;;;;;5066463;28;20056;-87
2024/02/03 08:18:34;;;;;;;9.52;5.00;;;;;;;;;;5066992;28;20000;-85
2024/02/03 08:20:59;;;;;;;12.63;5.13;;;;;;;;;;5054460;28;20384;-87
2024/02/03 08:23:25;;;;;;;11.57;5.03;;;;;;;;;;5046645;28;20450;-85
2024/02/03 08:25:55;;;;;;;9.45;4.65;;;;;;;;;;5049372;28;20032;-86
2024/02/03 08:28:21;;;;;;;10.90;4.65;;;;;;;;;;5054136;28;20448;-86
2024/02/03 08:30:47;;;;;;;9.55;4.53;;;;;;;;;;5050143;28;20058;-86
2024/02/03 08:33:12;;;;;;;10.07;4.32;;;;;;;;;;5050976;28;20017;-87
2024/02/03 08:35:37;;;;;;;9.68;4.50;;;;;;;;;;5059932;28;20082;-86
2024/02/03 08:38:03;;;;;;;11.93;4.13;;;;;;;;;;5051296;28;20090;-87
2024/02/03 08:40:29;;;;;;;11.27;4.80;;;;;;;;;;5049883;28;20024;-86
2024/02/03 08:42:55;;;;;;;9.00;4.35;;;;;;;;;;5049158;28;20119;-85
2024/02/03 08:45:20;;;;;;;12.25;4.80;;;;;;;;;;5065122;28;20149;-85
2024/02/03 08:47:47;;;;;;;8.82;4.18;;;;;;;;;;5049080;28;20024;-89
2024/02/03 08:50:13;;;;;;;9.82;4.38;;;;;;;;;;5050073;28;20502;-86
2024/02/03 08:52:38;;;;;;;10.88;4.90;;;;;;;;;;5047568;28;20025;-88
2024/02/03 08:55:04;;;;;;;11.43;4.40;;;;;;;;;;5049502;28;20056;-86
2024/02/03 08:57:30;;;;;;;8.82;4.55;;;;;;;;;;5065605;28;20465;-86
2024/02/03 08:59:55;;;;;;;10.07;4.30;;;;;;;;;;5048749;28;20082;-86
2024/02/03 09:02:27;;;;;;;10.05;4.22;;;;;;;;;;5051361;28;20024;-85
2024/02/03 09:04:52;;;;;;;10.57;4.60;;;;;;;;;;5049911;28;20500;-88
2024/02/03 09:07:18;;;;;;;10.10;4.10;;;;;;;;;;5064325;28;20033;-89
2024/02/03 09:09:43;;;;;;;9.57;4.35;;;;;;;;;;5053535;28;20029;-89
2024/02/03 09:12:09;;;;;;;6.80;3.78;;;;;;;;;;5050210;28;20025;-87
2024/02/03 09:14:35;;;;;;;10.77;4.30;;;;;;;;;;5049555;28;20469;-87
2024/02/03 09:17:00;;;;;;;10.05;4.15;;;;;;;;;;5052414;28;20052;-86
2024/02/03 09:19:28;;;;;;;8.43;4.38;;;;;;;;;;5065324;28;20025;-87
2024/02/03 09:21:53;;;;;;;9.18;4.15;;;;;;;;;;5067001;28;20432;-87
2024/02/03 09:24:19;;;;;;;9.88;3.78;;;;;;;;;;5066581;28;20081;-91
2024/02/03 09:26:44;;;;;;;10.77;3.90;;;;;;;;;;5065443;28;20028;-88
2024/02/03 09:29:11;;;;;;;10.18;4.35;;;;;;;;;;5045857;28;20045;-88
2024/02/03 09:31:36;;;;;;;7.15;4.00;;;;;;;;;;5051282;28;20115;-88
2024/02/03 09:34:05;;;;;;;9.98;4.35;;;;;;;;;;5045559;28;20131;-88
2024/02/03 09:36:31;;;;;;;8.88;4.15;;;;;;;;;;5062496;28;20444;-87
2024/02/03 09:39:01;;;;;;;12.10;4.30;;;;;;;;;;5052008;28;20028;-87
2024/02/03 09:41:27;;;;;;;10.07;4.20;;;;;;;;;;5048899;28;20067;-88
2024/02/03 09:43:56;;;;;;;10.70;4.85;;;;;;;;;;5051032;28;20028;-88
2024/02/03 09:46:21;;;;;;;9.15;4.30;;;;;;;;;;5067533;28;20506;-86
2024/02/03 09:48:47;;;;;;;9.15;4.10;;;;;;;;;;5064907;28;20020;-89
2024/02/03 09:51:12;;;;;;;9.90;4.65;;;;;;;;;;5047532;28;20516;-87
2024/02/03 09:53:38;;;;;;;8.82;4.05;;;;;;;;;;5067480;28;20469;-87
2024/02/03 09:56:14;;;;;;;5.93;3.95;;;;;;;;;;5045115;28;20040;-87
2024/02/03 09:58:40;;;;;;;7.78;4.10;;;;;;;;;;5047118;28;20035;-87
2024/02/03 10:01:06;;;;;;;8.60;4.30;;;;;;;;;;5047243;28;20020;-87
2024/02/03 10:03:41;;;;;;;8.05;3.90;;;;;;;;;;5048006;28;20024;-87
2024/02/03 10:06:10;;;;;;;11.27;4.10;;;;;;;;;;5048437;28;20078;-93
2024/02/03 10:08:35;;;;;;;9.07;3.85;;;;;;;;;;5066520;28;20053;-93
2024/02/03 10:11:01;;;;;;;10.13;3.72;;;;;;;;;;5051021;28;20053;-92
2024/02/03 10:13:26;;;;;;;8.68;4.10;;;;;;;;;;5051943;28;20116;-92
2024/02/03 10:16:09;;;;;;;6.88;3.53;;;;;;;;;;5049917;28;20028;-94
2024/02/03 10:18:34;;;;;;;7.55;3.67;;;;;;;;;;5062794;28;20051;-91
2024/02/03 10:21:01;;;;;;;6.90;3.30;;;;;;;;;;5047902;28;20079;-93
2024/02/03 10:23:34;;;;;;;7.10;3.20;;;;;;;;;;5052032;28;20020;-93
2024/02/03 10:26:14;;;;;;;8.52;3.17;;;;;;;;;;5053371;28;20481;-93
2024/02/03 10:28:44;;;;;;;6.78;2.88;;;;;;;;;;5066963;28;20024;-93
2024/02/03 10:31:13;;;;;;;6.15;3.20;;;;;;;;;;5065300;28;20485;-93
2024/02/03 10:33:44;;;;;;;9.82;3.40;;;;;;;;;;5053427;28;20033;-94
2024/02/03 10:36:18;;;;;;;5.22;2.90;;;;;;;;;;5064619;28;20115;-91
2024/02/03 10:38:43;;;;;;;6.30;3.78;;;;;;;;;;5062310;28;20107;-93
2024/02/03 10:41:15;;;;;;;10.07;3.10;;;;;;;;;;5063166;28;20549;-93
2024/02/03 10:43:47;;;;;;;5.55;2.72;;;;;;;;;;5049408;28;20031;-93
2024/02/03 10:46:24;;;;;;;7.35;2.95;;;;;;;;;;5050788;28;20021;-93
2024/02/03 10:48:53;;;;;;;6.95;2.50;;;;;;;;;;5051087;28;20058;-92
2024/02/03 10:51:23;;;;;;;5.88;2.63;;;;;;;;;;5047894;28;20028;-93
2024/02/03 10:53:54;;;;;;;7.10;2.70;;;;;;;;;;5051398;28;20036;-93
2024/02/03 10:56:25;;;;;;;6.22;2.63;;;;;;;;;;5068342;28;20492;-92
2024/02/03 10:58:54;;;;;;;6.95;2.88;;;;;;;;;;5058333;28;20369;-92
2024/02/03 11:01:36;;;;;;;7.57;2.92;;;;;;;;;;5049714;28;20021;-91
2024/02/03 11:04:05;;;;;;;10.13;2.97;;;;;;;;;;5070201;28;20135;-93
2024/02/03 11:06:32;;;;;;;7.18;2.85;;;;;;;;;;5053802;28;20028;-93
2024/02/03 11:09:23;;;;;;;7.25;2.67;;;;;;;;;;5057703;28;20028;-92
2024/02/03 11:11:54;;;;;;;8.15;3.20;;;;;;;;;;5054047;28;20093;-91
2024/02/03 11:14:25;;;;;;;7.55;2.78;;;;;;;;;;5039903;28;20024;-91
2024/02/03 11:16:55;;;;;;;4.28;2.75;;;;;;;;;;5068800;28;20025;-92
2024/02/03 11:19:29;;;;;;;8.25;2.92;;;;;;;;;;5054474;28;20424;-90
2024/02/03 11:21:58;;;;;;;6.32;3.30;;;;;;;;;;5053471;28;20039;-91
2024/02/03 11:24:27;;;;;;;7.53;3.00;;;;;;;;;;5051752;28;20458;-91
2024/02/03 11:27:07;;;;;;;5.85;3.20;;;;;;;;;;5051098;28;20098;-91
2024/02/03 11:29:33;;;;;;;8.27;4.40;;;;;;;;;;5068520;28;20081;-90
2024/02/03 11:31:59;;;;;;;8.10;3.80;;;;;;;;;;5037884;28;20119;-90
2024/02/03 11:34:29;;;;;;;6.63;4.40;;;;;;;;;;5053788;28;20056;-91
2024/02/03 11:36:55;;;;;;;7.57;4.50;;;;;;;;;;5050907;28;20423;-90
2024/02/03 11:39:34;;;;;;;8.85;4.57;;;;;;;;;;5051221;28;20028;-91
2024/02/03 11:42:07;;;;;;;9.30;5.03;;;;;;;;;;5050843;28;20044;-91
2024/02/03 11:44:49;;;;;;;7.57;4.97;;;;;;;;;;5052168;28;20022;-91
2024/02/03 11:47:19;;;;;;;7.35;4.72;;;;;;;;;;5064213;28;20093;-90
2024/02/03 11:49:45;;;;;;;10.02;5.30;;;;;;;;;;5069933;28;20021;-89
2024/02/03 11:52:14;;;;;;;8.38;5.38;;;;;;;;;;5053160;28;20025;-91
2024/02/03 11:54:40;;;;;;;8.05;5.10;;;;;;;;;;5065621;28;20051;-91
2024/02/03 11:57:06;;;;;;;10.35;5.80;;;;;;;;;;5052405;28;20035;-91
2024/02/03 11:59:32;;;;;;;9.52;5.10;;;;;;;;;;5044784;28;20029;-89
2024/02/03 12:02:00;;;;;;;7.85;5.22;;;;;;;;;;5052313;28;20039;-94
2024/02/03 12:04:27;;;;;;;10.63;5.63;;;;;;;;;;5053076;28;20112;-91
2024/02/03 12:06:56;;;;;;;13.05;5.13;;;;;;;;;;5048973;28;20082;-91
2024/02/03 12:09:22;;;;;;;9.63;5.20;;;;;;;;;;5055434;28;20056;-92
2024/02/03 12:11:51;;;;;;;9.48;5.70;;;;;;;;;;5054694;28;20044;-90
2024/02/03 12:14:21;;;;;;;12.10;6.05;;;;;;;;;;5057232;28;20039;-91
2024/02/03 12:16:48;;;;;;;12.57;6.15;;;;;;;;;;5054136;28;20051;-90
2024/02/03 12:19:15;;;;;;;14.55;6.50;;;;;;;;;;5058854;28;20016;-91
2024/02/03 12:21:43;;;;;;;15.05;6.97;;;;;;;;;;5058187;28;20287;-90
2024/02/03 12:24:10;;;;;;;10.50;6.38;;;;;;;;;;5035206;28;21497;-89
2024/02/03 12:26:36;;;;;;;9.55;6.05;;;;;;;;;;5063111;28;20040;-90
2024/02/03 12:29:05;;;;;;;9.05;5.88;;;;;;;;;;5047315;28;20476;-90
2024/02/03 12:31:31;;;;;;;10.50;6.22;;;;;;;;;;5063752;28;20075;-90
2024/02/03 12:33:59;;;;;;;9.43;5.85;;;;;;;;;;5066848;28;20400;-90
2024/02/03 12:36:24;;;;;;;9.10;5.65;;;;;;;;;;5045927;28;20042;-88
2024/02/03 12:38:51;;;;;;;10.88;6.18;;;;;;;;;;5059772;28;20029;-91
2024/02/03 12:41:16;;;;;;;10.48;6.65;;;;;;;;;;5062544;28;20060;-91
2024/02/03 12:43:48;;;;;;;10.18;5.80;;;;;;;;;;5061375;28;20028;-90
2024/02/03 12:46:39;;;;;;;9.55;5.57;;;;;;;;;;5046944;28;20120;-90
2024/02/03 12:49:57;;;;;;;10.05;5.85;;;;;;;;;;5047702;28;20398;-89
2024/02/03 12:52:40;;;;;;;;;;;;;;;;;;;;;
2024/02/03 12:55:18;;;;;;;6.22;4.38;;;;;;;;;;5058269;28;20072;-92
2024/02/03 12:57:45;;;;;;;7.90;4.72;;;;;;;;;;5056827;28;20032;-92
2024/02/03 13:00:34;;;;;;;7.82;5.00;;;;;;;;;;5058648;28;20029;-90
2024/02/03 13:03:13;;;;;;;9.13;5.50;;;;;;;;;;5041488;28;20043;-89
2024/02/03 13:06:12;;;;;;;11.32;5.85;;;;;;;;;;5039937;28;20174;-91
2024/02/03 13:08:38;;;;;;;6.43;4.40;;;;;;;;;;5045666;28;20039;-91
2024/02/03 13:11:07;;;;;;;6.07;4.40;;;;;;;;;;5024334;28;20382;-89
2024/02/03 13:13:36;;;;;;;8.40;4.90;;;;;;;;;;5031845;28;20039;-90
2024/02/03 13:16:04;;;;;;;7.10;4.53;;;;;;;;;;5031270;28;20028;-88
2024/02/03 13:18:32;;;;;;;8.65;4.93;;;;;;;;;;5036266;28;20071;-88
2024/02/03 13:21:00;;;;;;;6.68;4.75;;;;;;;;;;5022874;28;20102;-88
2024/02/03 13:23:29;;;;;;;7.70;4.50;;;;;;;;;;5047425;28;20052;-92
2024/02/03 13:25:55;;;;;;;8.40;4.63;;;;;;;;;;5054003;28;20032;-91
2024/02/03 13:29:17;;;;;;;9.98;4.90;;;;;;;;;;5048405;28;20089;-90
2024/02/03 13:31:49;;;;;;;8.25;4.18;;;;;;;;;;5019414;28;20095;-89
2024/02/03 13:34:53;;;;;;;7.93;4.47;;;;;;;;;;5041906;28;20033;-90
2024/02/03 13:41:32;;;;;;;;;;;;;;;;;;;;;
2024/02/03 13:44:22;;;;;;;6.88;4.65;;;;;;;;;;4969730;28;20130;-90
2024/02/03 13:50:23;;;;;;;5.85;3.63;;;;;;;;;;4898544;29;20050;-91
2024/02/03 13:53:08;;;;;;;;;;;;;;;;;;;;;
2024/02/03 13:56:00;;;;;;;6.63;3.50;;;;;;;;;;4898068;29;20528;-90
2024/02/03 13:58:43;;;;;;;;;;;;;;;;;;;;;
2024/02/03 14:01:24;;;;;;;6.47;3.20;;;;;;;;;;4900679;29;20064;-90
2024/02/03 14:08:17;;;;;;;;;;;;;;;;;;;;;
2024/02/03 14:11:14;;;;;;;9.15;3.75;;;;;;;;;;4902612;29;20050;-90
2024/02/03 14:14:11;;;;;;;6.43;3.63;;;;;;;;;;4898503;29;20210;-89
2024/02/03 14:16:55;;;;;;;6.10;3.42;;;;;;;;;;5030348;28;20056;-91
2024/02/03 14:19:54;;;;;;;;;;;;;;;;;;;;;
2024/02/03 14:25:42;;;;;;;5.18;2.70;;;;;;;;;;5025752;28;20039;-89
2024/02/03 14:28:18;;;;;;;4.65;2.90;;;;;;;;;;5036358;28;20035;-89
2024/02/03 14:31:04;;;;;;;5.00;2.60;;;;;;;;;;5047588;28;20025;-90
2024/02/03 14:37:47;;;;;;;4.32;2.70;;;;;;;;;;4934485;28;20030;-91
2024/02/03 14:40:29;;;;;;;;;;;;;;;;;;;;;
2024/02/03 14:43:31;;;;;;;;;;;;;;;;;;;;;
2024/02/03 14:46:12;;;;;;;6.43;3.20;;;;;;;;;;5054621;28;20037;-90
2024/02/03 14:48:55;;;;;;;;;;;;;;;;;;;;;
2024/02/03 14:52:26;;;;;;;4.60;3.00;;;;;;;;;;5055497;28;20028;-89
2024/02/03 14:59:14;;;;;;;6.85;3.53;;;;;;;;;;5044669;28;20098;-88
2024/02/03 15:01:46;;;;;;;7.32;3.58;;;;;;;;;;4954478;28;20799;-88
2024/02/03 15:04:49;;;;;;;6.32;3.20;;;;;;;;;;4954782;28;20627;-88
2024/02/03 15:07:47;;;;;;;;;;;;;;;;;;;;;
2024/02/03 15:10:52;;;;;;;;;;;;;;;;;;;;;
2024/02/03 15:14:09;;;;;;;;;;;;;;;;;;;;;
2024/02/03 15:17:07;;;;;;;;;;;;;;;;;;;;;
2024/02/03 15:20:01;;;;;;;7.57;3.53;;;;;;;;;;4968301;28;20046;-91
2024/02/03 15:23:13;;;;;;;;;;;;;;;;;;;;;
2024/02/03 15:33:07;;;;;;;6.35;2.75;;;;;;;;;;4954814;28;20027;-89
2024/02/03 15:36:15;;;;;;;;;;;;;;;;;;;;;
2024/02/03 15:39:29;;;;;;;7.07;3.53;;;;;;;;;;4988025;28;20042;-88